Terminal Aerodrome Forecast
Issued by NWS Atlanta, GA

Home | Current Version | Previous Version | Text Only | Print | Product List | Glossary On
Versions: 1 2 3 4 5 6 7 8 9 10 11 12 13 14
457
FTUS42 KFFC 091120
TAFCSG
TAF
KCSG 091120Z 0912/1012 28011G19KT P6SM SCT035 BKN050
     FM091500 30012G23KT P6SM BKN035
     FM100200 30010KT P6SM SCT040 BKN100=

USA.gov is the U.S. government's official web portal to all federal, state and local government web resources and services.